sensor_id;sensor_type;location;lat;lon;timestamp;P1;P4;P2;P0;N10;N4;N25;N1;N05;TS
67700;SPS30;55380;54.156;18.708;2023-02-28T00:00:00;23.3;;22.8;21.2;;;;;;
67700;SPS30;55380;54.156;18.708;2023-02-28T00:02:00;22.8;;22.5;21.0;;;;;;
67700;SPS30;55380;54.156;18.708;2023-02-28T00:04:00;21.8;;21.4;19.8;;;;;;
67700;SPS30;55380;54.156;18.708;2023-02-28T00:06:01;21.7;;21.2;19.7;;;;;;
67700;SPS30;55380;54.156;18.708;2023-02-28T00:08:00;19.2;;19.0;17.8;;;;;;
67700;SPS30;55380;54.156;18.708;2023-02-28T00:10:01;20.3;;20.0;18.7;;;;;;
67700;SPS30;55380;54.156;18.708;2023-02-28T00:12:00;21.8;;21.6;20.2;;;;;;
67700;SPS30;55380;54.156;18.708;2023-02-28T00:14:00;22.1;;21.7;20.2;;;;;;
67700;SPS30;55380;54.156;18.708;2023-02-28T00:16:01;22.0;;21.5;19.9;;;;;;
67700;SPS30;55380;54.156;18.708;2023-02-28T00:18:01;23.5;;22.7;20.6;;;;;;
67700;SPS30;55380;54.156;18.708;2023-02-28T00:20:00;23.3;;22.6;20.7;;;;;;
67700;SPS30;55380;54.156;18.708;2023-02-28T00:22:00;24.2;;23.6;21.7;;;;;;
67700;SPS30;55380;54.156;18.708;2023-02-28T00:24:00;24.8;;24.2;22.3;;;;;;
67700;SPS30;55380;54.156;18.708;2023-02-28T00:26:00;24.4;;23.7;21.7;;;;;;
67700;SPS30;55380;54.156;18.708;2023-02-28T00:28:00;26.8;;25.9;23.7;;;;;;
67700;SPS30;55380;54.156;18.708;2023-02-28T00:30:00;34.0;;33.3;30.9;;;;;;
67700;SPS30;55380;54.156;18.708;2023-02-28T00:32:00;50.5;;48.3;43.5;;;;;;
67700;SPS30;55380;54.156;18.708;2023-02-28T00:34:00;69.5;;66.0;59.0;;;;;;
67700;SPS30;55380;54.156;18.708;2023-02-28T00:36:01;83.2;;78.8;70.2;;;;;;
67700;SPS30;55380;54.156;18.708;2023-02-28T00:38:00;74.8;;71.4;64.3;;;;;;
67700;SPS30;55380;54.156;18.708;2023-02-28T00:40:00;70.6;;67.5;60.8;;;;;;
67700;SPS30;55380;54.156;18.708;2023-02-28T00:42:00;85.4;;80.3;71.0;;;;;;
67700;SPS30;55380;54.156;18.708;2023-02-28T00:44:00;100.8;;94.2;82.7;;;;;;
67700;SPS30;55380;54.156;18.708;2023-02-28T00:46:00;108.5;;101.8;89.8;;;;;;
67700;SPS30;55380;54.156;18.708;2023-02-28T00:48:00;113.5;;105.6;92.2;;;;;;
67700;SPS30;55380;54.156;18.708;2023-02-28T00:50:00;122.3;;114.8;101.1;;;;;;
67700;SPS30;55380;54.156;18.708;2023-02-28T00:52:00;131.6;;122.7;107.2;;;;;;
67700;SPS30;55380;54.156;18.708;2023-02-28T00:54:00;135.0;;128.2;114.6;;;;;;
67700;SPS30;55380;54.156;18.708;2023-02-28T00:56:00;121.7;;116.4;104.9;;;;;;
67700;SPS30;55380;54.156;18.708;2023-02-28T00:58:00;119.9;;116.3;106.4;;;;;;
67700;SPS30;55380;54.156;18.708;2023-02-28T01:00:00;157.4;;151.4;137.3;;;;;;
67700;SPS30;55380;54.156;18.708;2023-02-28T01:02:00;163.4;;157.7;143.5;;;;;;
67700;SPS30;55380;54.156;18.708;2023-02-28T01:04:00;133.1;;128.6;117.3;;;;;;
67700;SPS30;55380;54.156;18.708;2023-02-28T01:06:00;95.8;;94.0;87.1;;;;;;
67700;SPS30;55380;54.156;18.708;2023-02-28T01:08:01;111.8;;109.2;100.7;;;;;;
67700;SPS30;55380;54.156;18.708;2023-02-28T01:10:00;211.9;;206.6;190.2;;;;;;
67700;SPS30;55380;54.156;18.708;2023-02-28T01:12:00;276.0;;270.2;249.9;;;;;;
67700;SPS30;55380;54.156;18.708;2023-02-28T01:14:00;250.9;;246.3;228.5;;;;;;
67700;SPS30;55380;54.156;18.708;2023-02-28T01:16:00;114.6;;112.7;104.7;;;;;;
67700;SPS30;55380;54.156;18.708;2023-02-28T01:18:00;64.2;;63.2;58.8;;;;;;
67700;SPS30;55380;54.156;18.708;2023-02-28T01:20:00;28.1;;27.8;25.9;;;;;;
67700;SPS30;55380;54.156;18.708;2023-02-28T01:22:01;32.4;;31.9;29.7;;;;;;
67700;SPS30;55380;54.156;18.708;2023-02-28T01:24:00;24.0;;23.8;22.4;;;;;;
67700;SPS30;55380;54.156;18.708;2023-02-28T01:26:03;15.2;;15.1;14.2;;;;;;
67700;SPS30;55380;54.156;18.708;2023-02-28T01:28:00;12.2;;12.1;11.4;;;;;;
67700;SPS30;55380;54.156;18.708;2023-02-28T01:30:00;9.7;;9.7;9.1;;;;;;
67700;SPS30;55380;54.156;18.708;2023-02-28T01:32:00;9.0;;9.0;8.5;;;;;;
67700;SPS30;55380;54.156;18.708;2023-02-28T01:34:00;9.2;;9.2;8.7;;;;;;
67700;SPS30;55380;54.156;18.708;2023-02-28T01:36:00;10.8;;10.8;10.2;;;;;;
67700;SPS30;55380;54.156;18.708;2023-02-28T01:38:00;11.3;;11.2;10.6;;;;;;
67700;SPS30;55380;54.156;18.708;2023-02-28T01:40:00;25.7;;25.6;24.2;;;;;;
67700;SPS30;55380;54.156;18.708;2023-02-28T01:42:00;93.1;;92.1;86.1;;;;;;
67700;SPS30;55380;54.156;18.708;2023-02-28T01:44:02;367.9;;359.4;331.6;;;;;;
67700;SPS30;55380;54.156;18.708;2023-02-28T01:46:00;412.7;;400.8;367.5;;;;;;
67700;SPS30;55380;54.156;18.708;2023-02-28T01:48:04;388.0;;377.2;346.1;;;;;;
67700;SPS30;55380;54.156;18.708;2023-02-28T01:50:00;357.7;;343.1;310.3;;;;;;
67700;SPS30;55380;54.156;18.708;2023-02-28T01:52:00;317.4;;305.1;276.5;;;;;;
67700;SPS30;55380;54.156;18.708;2023-02-28T01:54:01;242.3;;232.8;210.9;;;;;;
67700;SPS30;55380;54.156;18.708;2023-02-28T01:56:00;177.1;;171.2;156.2;;;;;;
67700;SPS30;55380;54.156;18.708;2023-02-28T01:58:01;166.6;;162.1;148.9;;;;;;
67700;SPS30;55380;54.156;18.708;2023-02-28T02:00:00;125.7;;122.5;112.8;;;;;;
67700;SPS30;55380;54.156;18.708;2023-02-28T02:02:01;88.7;;85.2;77.2;;;;;;
67700;SPS30;55380;54.156;18.708;2023-02-28T02:04:01;28.1;;27.5;25.3;;;;;;
67700;SPS30;55380;54.156;18.708;2023-02-28T02:06:00;21.1;;20.8;19.3;;;;;;
67700;SPS30;55380;54.156;18.708;2023-02-28T02:08:02;23.7;;23.7;22.3;;;;;;
67700;SPS30;55380;54.156;18.708;2023-02-28T02:10:01;22.0;;22.0;20.8;;;;;;
67700;SPS30;55380;54.156;18.708;2023-02-28T02:12:01;14.4;;14.3;13.5;;;;;;
67700;SPS30;55380;54.156;18.708;2023-02-28T02:14:04;10.4;;10.4;9.7;;;;;;
67700;SPS30;55380;54.156;18.708;2023-02-28T02:16:03;9.1;;9.0;8.4;;;;;;
67700;SPS30;55380;54.156;18.708;2023-02-28T02:18:01;7.5;;7.4;7.0;;;;;;
67700;SPS30;55380;54.156;18.708;2023-02-28T02:20:09;7.9;;7.9;7.3;;;;;;
67700;SPS30;55380;54.156;18.708;2023-02-28T02:22:09;8.3;;8.2;7.6;;;;;;
67700;SPS30;55380;54.156;18.708;2023-02-28T02:24:03;8.3;;8.3;7.8;;;;;;
67700;SPS30;55380;54.156;18.708;2023-02-28T02:26:03;8.1;;8.1;7.6;;;;;;
67700;SPS30;55380;54.156;18.708;2023-02-28T02:32:10;24.2;;24.2;22.9;;;;;;
67700;SPS30;55380;54.156;18.708;2023-02-28T02:36:01;44.7;;44.6;42.0;;;;;;
67700;SPS30;55380;54.156;18.708;2023-02-28T02:38:02;43.4;;43.3;40.8;;;;;;
67700;SPS30;55380;54.156;18.708;2023-02-28T02:40:02;34.7;;34.5;32.4;;;;;;
67700;SPS30;55380;54.156;18.708;2023-02-28T02:42:01;21.3;;21.3;20.1;;;;;;
67700;SPS30;55380;54.156;18.708;2023-02-28T02:44:02;10.1;;10.1;9.5;;;;;;
67700;SPS30;55380;54.156;18.708;2023-02-28T02:46:02;9.9;;9.8;9.2;;;;;;
67700;SPS30;55380;54.156;18.708;2023-02-28T02:48:00;10.1;;10.1;9.4;;;;;;
67700;SPS30;55380;54.156;18.708;2023-02-28T02:50:02;8.9;;8.7;8.1;;;;;;
67700;SPS30;55380;54.156;18.708;2023-02-28T02:52:02;8.6;;8.4;7.8;;;;;;
67700;SPS30;55380;54.156;18.708;2023-02-28T02:54:02;8.1;;8.0;7.5;;;;;;
67700;SPS30;55380;54.156;18.708;2023-02-28T02:56:00;7.4;;7.4;7.0;;;;;;
67700;SPS30;55380;54.156;18.708;2023-02-28T02:58:01;7.2;;7.2;6.8;;;;;;
67700;SPS30;55380;54.156;18.708;2023-02-28T03:00:00;7.6;;7.5;7.1;;;;;;
67700;SPS30;55380;54.156;18.708;2023-02-28T03:02:01;6.9;;6.9;6.5;;;;;;
67700;SPS30;55380;54.156;18.708;2023-02-28T03:04:01;7.0;;7.0;6.5;;;;;;
67700;SPS30;55380;54.156;18.708;2023-02-28T03:06:00;7.0;;6.8;6.3;;;;;;
67700;SPS30;55380;54.156;18.708;2023-02-28T03:08:02;6.4;;6.3;5.8;;;;;;
67700;SPS30;55380;54.156;18.708;2023-02-28T03:10:00;6.5;;6.4;6.0;;;;;;
67700;SPS30;55380;54.156;18.708;2023-02-28T03:12:00;6.2;;6.2;5.8;;;;;;
67700;SPS30;55380;54.156;18.708;2023-02-28T03:14:04;6.7;;6.6;6.2;;;;;;
67700;SPS30;55380;54.156;18.708;2023-02-28T03:16:05;6.9;;6.8;6.4;;;;;;
67700;SPS30;55380;54.156;18.708;2023-02-28T03:18:02;6.4;;6.3;5.9;;;;;;
67700;SPS30;55380;54.156;18.708;2023-02-28T03:20:02;6.7;;6.4;5.8;;;;;;
67700;SPS30;55380;54.156;18.708;2023-02-28T03:22:04;6.3;;6.2;5.8;;;;;;
67700;SPS30;55380;54.156;18.708;2023-02-28T03:24:03;6.6;;6.5;6.1;;;;;;
67700;SPS30;55380;54.156;18.708;2023-02-28T03:26:02;6.0;;5.9;5.4;;;;;;
67700;SPS30;55380;54.156;18.708;2023-02-28T03:28:02;6.1;;5.9;5.4;;;;;;
67700;SPS30;55380;54.156;18.708;2023-02-28T03:30:03;6.6;;6.4;5.9;;;;;;
67700;SPS30;55380;54.156;18.708;2023-02-28T03:32:02;6.6;;6.4;5.8;;;;;;
67700;SPS30;55380;54.156;18.708;2023-02-28T03:34:01;7.2;;6.9;6.3;;;;;;
67700;SPS30;55380;54.156;18.708;2023-02-28T03:36:02;7.3;;7.1;6.4;;;;;;
67700;SPS30;55380;54.156;18.708;2023-02-28T03:38:01;6.7;;6.7;6.3;;;;;;
67700;SPS30;55380;54.156;18.708;2023-02-28T03:40:01;6.6;;6.6;6.2;;;;;;
67700;SPS30;55380;54.156;18.708;2023-02-28T03:42:01;7.2;;7.2;6.8;;;;;;
67700;SPS30;55380;54.156;18.708;2023-02-28T03:44:03;7.8;;7.8;7.4;;;;;;
67700;SPS30;55380;54.156;18.708;2023-02-28T03:46:00;8.3;;8.3;7.8;;;;;;
67700;SPS30;55380;54.156;18.708;2023-02-28T03:48:01;9.1;;9.1;8.6;;;;;;
67700;SPS30;55380;54.156;18.708;2023-02-28T03:50:01;9.3;;9.2;8.7;;;;;;
67700;SPS30;55380;54.156;18.708;2023-02-28T03:52:00;9.7;;9.7;9.1;;;;;;
67700;SPS30;55380;54.156;18.708;2023-02-28T03:54:02;10.5;;10.5;10.0;;;;;;
67700;SPS30;55380;54.156;18.708;2023-02-28T03:56:01;10.5;;10.5;9.9;;;;;;
67700;SPS30;55380;54.156;18.708;2023-02-28T03:58:01;9.8;;9.8;9.3;;;;;;
67700;SPS30;55380;54.156;18.708;2023-02-28T04:00:02;9.2;;9.2;8.7;;;;;;
67700;SPS30;55380;54.156;18.708;2023-02-28T04:02:00;8.6;;8.6;8.1;;;;;;
67700;SPS30;55380;54.156;18.708;2023-02-28T04:04:00;7.6;;7.6;7.2;;;;;;
67700;SPS30;55380;54.156;18.708;2023-02-28T04:06:00;7.0;;7.0;6.6;;;;;;
67700;SPS30;55380;54.156;18.708;2023-02-28T04:08:04;6.3;;6.3;6.0;;;;;;
67700;SPS30;55380;54.156;18.708;2023-02-28T04:10:00;6.3;;6.3;5.9;;;;;;
67700;SPS30;55380;54.156;18.708;2023-02-28T04:12:00;6.5;;6.4;6.0;;;;;;
67700;SPS30;55380;54.156;18.708;2023-02-28T04:14:00;6.1;;6.0;5.7;;;;;;
67700;SPS30;55380;54.156;18.708;2023-02-28T04:16:00;4.8;;4.8;4.6;;;;;;
67700;SPS30;55380;54.156;18.708;2023-02-28T04:18:00;5.0;;5.0;4.7;;;;;;
67700;SPS30;55380;54.156;18.708;2023-02-28T04:20:00;4.9;;4.9;4.6;;;;;;
67700;SPS30;55380;54.156;18.708;2023-02-28T04:22:00;4.5;;4.5;4.3;;;;;;
67700;SPS30;55380;54.156;18.708;2023-02-28T04:24:00;4.6;;4.6;4.4;;;;;;
67700;SPS30;55380;54.156;18.708;2023-02-28T04:26:00;4.1;;4.1;3.9;;;;;;
67700;SPS30;55380;54.156;18.708;2023-02-28T04:28:00;4.4;;4.4;4.2;;;;;;
67700;SPS30;55380;54.156;18.708;2023-02-28T04:30:00;4.6;;4.6;4.3;;;;;;
67700;SPS30;55380;54.156;18.708;2023-02-28T04:32:01;4.4;;4.4;4.2;;;;;;
67700;SPS30;55380;54.156;18.708;2023-02-28T04:34:00;4.2;;4.2;4.0;;;;;;
67700;SPS30;55380;54.156;18.708;2023-02-28T04:36:01;3.8;;3.8;3.6;;;;;;
67700;SPS30;55380;54.156;18.708;2023-02-28T04:38:00;3.7;;3.7;3.5;;;;;;
67700;SPS30;55380;54.156;18.708;2023-02-28T04:40:00;4.0;;4.0;3.8;;;;;;
67700;SPS30;55380;54.156;18.708;2023-02-28T04:42:00;4.3;;4.3;4.1;;;;;;
67700;SPS30;55380;54.156;18.708;2023-02-28T04:44:00;5.8;;5.8;5.5;;;;;;
67700;SPS30;55380;54.156;18.708;2023-02-28T04:46:01;6.2;;6.2;5.9;;;;;;
67700;SPS30;55380;54.156;18.708;2023-02-28T04:48:00;7.8;;7.8;7.4;;;;;;
67700;SPS30;55380;54.156;18.708;2023-02-28T04:50:00;8.2;;8.2;7.7;;;;;;
67700;SPS30;55380;54.156;18.708;2023-02-28T04:52:00;9.3;;9.3;8.8;;;;;;
67700;SPS30;55380;54.156;18.708;2023-02-28T04:54:00;8.2;;8.2;7.8;;;;;;
67700;SPS30;55380;54.156;18.708;2023-02-28T04:56:00;8.3;;8.3;7.9;;;;;;
67700;SPS30;55380;54.156;18.708;2023-02-28T04:58:00;6.9;;6.9;6.6;;;;;;
67700;SPS30;55380;54.156;18.708;2023-02-28T05:00:00;8.2;;8.2;7.7;;;;;;
67700;SPS30;55380;54.156;18.708;2023-02-28T05:02:00;6.6;;6.6;6.2;;;;;;
67700;SPS30;55380;54.156;18.708;2023-02-28T05:04:01;5.6;;5.6;5.3;;;;;;
67700;SPS30;55380;54.156;18.708;2023-02-28T05:06:00;5.7;;5.7;5.4;;;;;;
67700;SPS30;55380;54.156;18.708;2023-02-28T05:08:00;5.5;;5.5;5.2;;;;;;
67700;SPS30;55380;54.156;18.708;2023-02-28T05:10:00;5.8;;5.8;5.5;;;;;;
67700;SPS30;55380;54.156;18.708;2023-02-28T05:12:00;6.1;;6.1;5.7;;;;;;
67700;SPS30;55380;54.156;18.708;2023-02-28T05:14:00;5.8;;5.8;5.5;;;;;;
67700;SPS30;55380;54.156;18.708;2023-02-28T05:16:00;5.3;;5.3;5.0;;;;;;
67700;SPS30;55380;54.156;18.708;2023-02-28T05:18:00;5.5;;5.5;5.2;;;;;;
67700;SPS30;55380;54.156;18.708;2023-02-28T05:20:00;5.9;;5.9;5.6;;;;;;
67700;SPS30;55380;54.156;18.708;2023-02-28T05:22:00;7.0;;6.9;6.5;;;;;;
67700;SPS30;55380;54.156;18.708;2023-02-28T05:24:02;7.9;;7.7;7.2;;;;;;
67700;SPS30;55380;54.156;18.708;2023-02-28T05:26:00;7.5;;7.4;6.9;;;;;;
67700;SPS30;55380;54.156;18.708;2023-02-28T05:28:00;6.4;;6.3;5.9;;;;;;
67700;SPS30;55380;54.156;18.708;2023-02-28T05:30:00;5.8;;5.8;5.4;;;;;;
67700;SPS30;55380;54.156;18.708;2023-02-28T05:32:01;5.7;;5.7;5.4;;;;;;
67700;SPS30;55380;54.156;18.708;2023-02-28T05:34:01;6.1;;6.0;5.6;;;;;;
67700;SPS30;55380;54.156;18.708;2023-02-28T05:36:00;6.5;;6.5;6.2;;;;;;
67700;SPS30;55380;54.156;18.708;2023-02-28T05:38:00;8.6;;8.6;8.1;;;;;;
67700;SPS30;55380;54.156;18.708;2023-02-28T05:40:00;9.1;;9.0;8.5;;;;;;
67700;SPS30;55380;54.156;18.708;2023-02-28T05:42:00;7.9;;7.8;7.2;;;;;;
67700;SPS30;55380;54.156;18.708;2023-02-28T05:44:00;7.8;;7.7;7.1;;;;;;
67700;SPS30;55380;54.156;18.708;2023-02-28T05:46:01;7.3;;7.2;6.8;;;;;;
67700;SPS30;55380;54.156;18.708;2023-02-28T05:48:00;7.6;;7.5;7.0;;;;;;
67700;SPS30;55380;54.156;18.708;2023-02-28T05:50:00;7.7;;7.6;7.2;;;;;;
67700;SPS30;55380;54.156;18.708;2023-02-28T05:52:00;7.5;;7.3;6.8;;;;;;
67700;SPS30;55380;54.156;18.708;2023-02-28T05:54:00;7.2;;7.1;6.6;;;;;;
67700;SPS30;55380;54.156;18.708;2023-02-28T05:56:00;6.2;;6.2;5.8;;;;;;
67700;SPS30;55380;54.156;18.708;2023-02-28T05:58:00;6.2;;6.2;5.8;;;;;;
67700;SPS30;55380;54.156;18.708;2023-02-28T06:00:00;6.6;;6.5;6.1;;;;;;
67700;SPS30;55380;54.156;18.708;2023-02-28T06:02:00;6.1;;6.0;5.6;;;;;;
67700;SPS30;55380;54.156;18.708;2023-02-28T06:04:01;6.3;;6.2;5.9;;;;;;
67700;SPS30;55380;54.156;18.708;2023-02-28T06:06:00;7.1;;7.0;6.6;;;;;;
67700;SPS30;55380;54.156;18.708;2023-02-28T06:08:00;7.7;;7.6;7.1;;;;;;
67700;SPS30;55380;54.156;18.708;2023-02-28T06:10:00;6.8;;6.7;6.3;;;;;;
67700;SPS30;55380;54.156;18.708;2023-02-28T06:12:01;6.4;;6.4;6.0;;;;;;
67700;SPS30;55380;54.156;18.708;2023-02-28T06:14:00;6.5;;6.5;6.2;;;;;;
67700;SPS30;55380;54.156;18.708;2023-02-28T06:16:00;5.8;;5.8;5.4;;;;;;
67700;SPS30;55380;54.156;18.708;2023-02-28T06:18:00;6.1;;6.0;5.6;;;;;;
67700;SPS30;55380;54.156;18.708;2023-02-28T06:20:00;14.6;;14.2;13.0;;;;;;
67700;SPS30;55380;54.156;18.708;2023-02-28T06:22:00;32.1;;29.2;24.8;;;;;;
67700;SPS30;55380;54.156;18.708;2023-02-28T06:24:00;25.4;;22.9;19.3;;;;;;
67700;SPS30;55380;54.156;18.708;2023-02-28T06:26:00;14.9;;14.5;13.3;;;;;;
67700;SPS30;55380;54.156;18.708;2023-02-28T06:28:00;11.8;;11.7;11.0;;;;;;
67700;SPS30;55380;54.156;18.708;2023-02-28T06:30:00;13.1;;13.1;12.4;;;;;;
67700;SPS30;55380;54.156;18.708;2023-02-28T06:32:00;17.3;;17.2;16.3;;;;;;
67700;SPS30;55380;54.156;18.708;2023-02-28T06:34:00;17.5;;17.5;16.5;;;;;;
67700;SPS30;55380;54.156;18.708;2023-02-28T06:36:00;16.2;;16.2;15.2;;;;;;
67700;SPS30;55380;54.156;18.708;2023-02-28T06:38:00;14.2;;14.2;13.3;;;;;;
67700;SPS30;55380;54.156;18.708;2023-02-28T06:40:01;12.1;;12.1;11.4;;;;;;
67700;SPS30;55380;54.156;18.708;2023-02-28T06:42:00;10.8;;10.8;10.2;;;;;;
67700;SPS30;55380;54.156;18.708;2023-02-28T06:44:00;8.5;;8.5;8.0;;;;;;
67700;SPS30;55380;54.156;18.708;2023-02-28T06:46:01;8.3;;8.3;7.8;;;;;;
67700;SPS30;55380;54.156;18.708;2023-02-28T06:48:00;8.6;;8.6;8.1;;;;;;
67700;SPS30;55380;54.156;18.708;2023-02-28T06:50:00;8.8;;8.8;8.2;;;;;;
67700;SPS30;55380;54.156;18.708;2023-02-28T06:52:00;9.5;;9.4;8.7;;;;;;
67700;SPS30;55380;54.156;18.708;2023-02-28T06:54:00;11.0;;10.9;10.1;;;;;;
67700;SPS30;55380;54.156;18.708;2023-02-28T06:56:03;12.2;;12.1;11.5;;;;;;
67700;SPS30;55380;54.156;18.708;2023-02-28T06:58:00;13.7;;13.7;12.9;;;;;;
67700;SPS30;55380;54.156;18.708;2023-02-28T07:00:01;14.3;;14.3;13.6;;;;;;
67700;SPS30;55380;54.156;18.708;2023-02-28T07:02:00;13.0;;12.9;12.0;;;;;;
67700;SPS30;55380;54.156;18.708;2023-02-28T07:04:00;11.3;;11.1;10.4;;;;;;
67700;SPS30;55380;54.156;18.708;2023-02-28T07:06:00;10.4;;10.2;9.4;;;;;;
67700;SPS30;55380;54.156;18.708;2023-02-28T07:08:00;9.4;;9.2;8.5;;;;;;
67700;SPS30;55380;54.156;18.708;2023-02-28T07:10:00;8.8;;8.6;8.1;;;;;;
67700;SPS30;55380;54.156;18.708;2023-02-28T07:12:00;9.1;;9.1;8.5;;;;;;
67700;SPS30;55380;54.156;18.708;2023-02-28T07:14:00;8.6;;8.4;7.8;;;;;;
67700;SPS30;55380;54.156;18.708;2023-02-28T07:16:01;7.9;;7.8;7.3;;;;;;
67700;SPS30;55380;54.156;18.708;2023-02-28T07:18:00;8.8;;8.7;8.1;;;;;;
67700;SPS30;55380;54.156;18.708;2023-02-28T07:20:00;8.9;;8.8;8.3;;;;;;
67700;SPS30;55380;54.156;18.708;2023-02-28T07:22:00;9.8;;9.6;8.9;;;;;;
67700;SPS30;55380;54.156;18.708;2023-02-28T07:24:00;9.5;;9.5;8.9;;;;;;
67700;SPS30;55380;54.156;18.708;2023-02-28T07:26:00;8.7;;8.7;8.3;;;;;;
67700;SPS30;55380;54.156;18.708;2023-02-28T07:28:00;9.1;;9.1;8.6;;;;;;
67700;SPS30;55380;54.156;18.708;2023-02-28T07:30:00;18.0;;17.5;16.1;;;;;;
67700;SPS30;55380;54.156;18.708;2023-02-28T07:32:00;20.4;;19.3;17.1;;;;;;
67700;SPS30;55380;54.156;18.708;2023-02-28T07:34:00;17.7;;16.9;15.2;;;;;;
67700;SPS30;55380;54.156;18.708;2023-02-28T07:36:00;18.0;;17.6;16.3;;;;;;
67700;SPS30;55380;54.156;18.708;2023-02-28T07:38:00;14.1;;14.0;13.1;;;;;;
67700;SPS30;55380;54.156;18.708;2023-02-28T07:40:00;13.3;;13.3;12.5;;;;;;
67700;SPS30;55380;54.156;18.708;2023-02-28T07:42:03;12.8;;12.8;12.1;;;;;;
67700;SPS30;55380;54.156;18.708;2023-02-28T07:44:00;15.5;;15.5;14.7;;;;;;
67700;SPS30;55380;54.156;18.708;2023-02-28T07:46:01;14.0;;14.0;13.2;;;;;;
67700;SPS30;55380;54.156;18.708;2023-02-28T07:48:01;18.1;;17.9;16.8;;;;;;
67700;SPS30;55380;54.156;18.708;2023-02-28T07:50:00;24.9;;24.2;22.3;;;;;;
67700;SPS30;55380;54.156;18.708;2023-02-28T07:52:00;51.2;;46.5;39.4;;;;;;
67700;SPS30;55380;54.156;18.708;2023-02-28T07:54:00;33.2;;30.7;26.6;;;;;;
67700;SPS30;55380;54.156;18.708;2023-02-28T07:56:01;18.7;;18.5;17.4;;;;;;
67700;SPS30;55380;54.156;18.708;2023-02-28T07:58:00;14.0;;13.8;12.9;;;;;;
67700;SPS30;55380;54.156;18.708;2023-02-28T08:00:00;14.6;;14.3;13.2;;;;;;
67700;SPS30;55380;54.156;18.708;2023-02-28T08:02:00;14.6;;14.4;13.5;;;;;;
67700;SPS30;55380;54.156;18.708;2023-02-28T08:04:00;17.2;;16.6;15.1;;;;;;
67700;SPS30;55380;54.156;18.708;2023-02-28T08:06:00;19.3;;18.7;17.1;;;;;;
67700;SPS30;55380;54.156;18.708;2023-02-28T08:08:00;19.6;;18.9;17.3;;;;;;
67700;SPS30;55380;54.156;18.708;2023-02-28T08:10:00;16.8;;16.5;15.3;;;;;;
67700;SPS30;55380;54.156;18.708;2023-02-28T08:12:00;15.8;;15.4;14.2;;;;;;
67700;SPS30;55380;54.156;18.708;2023-02-28T08:14:00;12.7;;12.5;11.7;;;;;;
67700;SPS30;55380;54.156;18.708;2023-02-28T08:16:01;10.7;;10.7;10.1;;;;;;
67700;SPS30;55380;54.156;18.708;2023-02-28T08:18:00;10.3;;10.3;9.7;;;;;;
67700;SPS30;55380;54.156;18.708;2023-02-28T08:20:00;10.2;;10.0;9.4;;;;;;
67700;SPS30;55380;54.156;18.708;2023-02-28T08:22:00;9.4;;9.4;8.9;;;;;;
67700;SPS30;55380;54.156;18.708;2023-02-28T08:24:00;9.3;;9.3;8.7;;;;;;
67700;SPS30;55380;54.156;18.708;2023-02-28T08:26:00;8.9;;8.9;8.4;;;;;;
67700;SPS30;55380;54.156;18.708;2023-02-28T08:28:00;8.9;;8.9;8.4;;;;;;
67700;SPS30;55380;54.156;18.708;2023-02-28T08:30:00;9.2;;9.2;8.7;;;;;;
67700;SPS30;55380;54.156;18.708;2023-02-28T08:32:00;8.6;;8.6;8.1;;;;;;
67700;SPS30;55380;54.156;18.708;2023-02-28T08:34:00;8.8;;8.7;8.2;;;;;;
67700;SPS30;55380;54.156;18.708;2023-02-28T08:36:00;9.6;;9.5;8.9;;;;;;
67700;SPS30;55380;54.156;18.708;2023-02-28T08:38:00;10.2;;10.2;9.6;;;;;;
67700;SPS30;55380;54.156;18.708;2023-02-28T08:40:00;9.7;;9.7;9.1;;;;;;
67700;SPS30;55380;54.156;18.708;2023-02-28T08:42:00;9.0;;9.0;8.5;;;;;;
67700;SPS30;55380;54.156;18.708;2023-02-28T08:44:00;8.9;;8.8;8.3;;;;;;
67700;SPS30;55380;54.156;18.708;2023-02-28T08:46:00;9.1;;9.1;8.6;;;;;;
67700;SPS30;55380;54.156;18.708;2023-02-28T08:48:00;9.3;;9.1;8.5;;;;;;
67700;SPS30;55380;54.156;18.708;2023-02-28T08:50:00;8.8;;8.8;8.3;;;;;;
67700;SPS30;55380;54.156;18.708;2023-02-28T08:52:00;8.9;;8.9;8.4;;;;;;
67700;SPS30;55380;54.156;18.708;2023-02-28T08:54:01;10.0;;10.0;9.5;;;;;;
67700;SPS30;55380;54.156;18.708;2023-02-28T08:56:01;10.1;;10.1;9.6;;;;;;
67700;SPS30;55380;54.156;18.708;2023-02-28T08:58:00;10.8;;10.7;10.1;;;;;;
67700;SPS30;55380;54.156;18.708;2023-02-28T09:00:00;12.6;;12.6;11.9;;;;;;
67700;SPS30;55380;54.156;18.708;2023-02-28T09:02:00;12.5;;12.5;11.8;;;;;;
67700;SPS30;55380;54.156;18.708;2023-02-28T09:04:00;12.3;;12.2;11.5;;;;;;
67700;SPS30;55380;54.156;18.708;2023-02-28T09:06:00;11.7;;11.7;11.0;;;;;;
67700;SPS30;55380;54.156;18.708;2023-02-28T09:08:00;12.3;;12.2;11.4;;;;;;
67700;SPS30;55380;54.156;18.708;2023-02-28T09:10:00;12.2;;12.1;11.4;;;;;;
67700;SPS30;55380;54.156;18.708;2023-02-28T09:12:00;12.1;;12.1;11.4;;;;;;
67700;SPS30;55380;54.156;18.708;2023-02-28T09:14:00;11.7;;11.7;11.1;;;;;;
67700;SPS30;55380;54.156;18.708;2023-02-28T09:16:01;11.7;;11.7;11.0;;;;;;
67700;SPS30;55380;54.156;18.708;2023-02-28T09:18:00;12.5;;12.5;11.8;;;;;;
67700;SPS30;55380;54.156;18.708;2023-02-28T09:20:00;13.5;;13.4;12.7;;;;;;
67700;SPS30;55380;54.156;18.708;2023-02-28T09:22:00;14.4;;14.4;13.6;;;;;;
67700;SPS30;55380;54.156;18.708;2023-02-28T09:24:00;14.3;;14.3;13.5;;;;;;
67700;SPS30;55380;54.156;18.708;2023-02-28T09:26:00;13.9;;13.9;13.1;;;;;;
67700;SPS30;55380;54.156;18.708;2023-02-28T09:28:00;13.5;;13.4;12.6;;;;;;
67700;SPS30;55380;54.156;18.708;2023-02-28T09:30:00;13.0;;13.0;12.3;;;;;;
67700;SPS30;55380;54.156;18.708;2023-02-28T09:32:00;13.1;;13.1;12.4;;;;;;
67700;SPS30;55380;54.156;18.708;2023-02-28T09:34:00;14.1;;14.1;13.3;;;;;;
67700;SPS30;55380;54.156;18.708;2023-02-28T09:36:00;13.1;;13.1;12.4;;;;;;
67700;SPS30;55380;54.156;18.708;2023-02-28T09:38:00;12.0;;12.0;11.3;;;;;;
67700;SPS30;55380;54.156;18.708;2023-02-28T09:40:00;12.0;;12.0;11.4;;;;;;
67700;SPS30;55380;54.156;18.708;2023-02-28T09:42:00;11.4;;11.3;10.6;;;;;;
67700;SPS30;55380;54.156;18.708;2023-02-28T09:44:01;13.5;;13.4;12.7;;;;;;
67700;SPS30;55380;54.156;18.708;2023-02-28T09:46:02;12.7;;12.7;12.0;;;;;;
67700;SPS30;55380;54.156;18.708;2023-02-28T09:48:01;10.5;;10.5;9.9;;;;;;
67700;SPS30;55380;54.156;18.708;2023-02-28T09:50:03;8.7;;8.7;8.2;;;;;;
67700;SPS30;55380;54.156;18.708;2023-02-28T09:52:01;8.0;;8.0;7.6;;;;;;
67700;SPS30;55380;54.156;18.708;2023-02-28T09:54:00;7.4;;7.4;7.0;;;;;;
67700;SPS30;55380;54.156;18.708;2023-02-28T09:56:01;7.0;;7.0;6.6;;;;;;
67700;SPS30;55380;54.156;18.708;2023-02-28T09:58:00;8.1;;8.1;7.7;;;;;;
67700;SPS30;55380;54.156;18.708;2023-02-28T10:00:04;8.5;;8.5;8.1;;;;;;
67700;SPS30;55380;54.156;18.708;2023-02-28T10:02:02;8.2;;8.2;7.7;;;;;;
67700;SPS30;55380;54.156;18.708;2023-02-28T10:04:02;8.8;;8.8;8.3;;;;;;
67700;SPS30;55380;54.156;18.708;2023-02-28T10:06:02;9.5;;9.5;8.9;;;;;;
67700;SPS30;55380;54.156;18.708;2023-02-28T10:08:02;9.8;;9.8;9.3;;;;;;
67700;SPS30;55380;54.156;18.708;2023-02-28T10:10:01;10.4;;10.3;9.8;;;;;;
67700;SPS30;55380;54.156;18.708;2023-02-28T10:12:01;10.6;;10.6;10.0;;;;;;
67700;SPS30;55380;54.156;18.708;2023-02-28T10:14:01;10.5;;10.5;9.9;;;;;;
67700;SPS30;55380;54.156;18.708;2023-02-28T10:16:01;10.1;;10.1;9.5;;;;;;
67700;SPS30;55380;54.156;18.708;2023-02-28T10:18:01;10.6;;10.5;9.9;;;;;;
67700;SPS30;55380;54.156;18.708;2023-02-28T10:20:02;11.2;;11.1;10.3;;;;;;
67700;SPS30;55380;54.156;18.708;2023-02-28T10:22:01;11.7;;11.7;11.1;;;;;;
67700;SPS30;55380;54.156;18.708;2023-02-28T10:24:03;10.1;;10.0;9.5;;;;;;
67700;SPS30;55380;54.156;18.708;2023-02-28T10:26:05;10.2;;10.2;9.7;;;;;;
67700;SPS30;55380;54.156;18.708;2023-02-28T10:28:01;11.8;;11.8;11.1;;;;;;
67700;SPS30;55380;54.156;18.708;2023-02-28T10:30:01;10.5;;10.5;9.9;;;;;;
67700;SPS30;55380;54.156;18.708;2023-02-28T10:32:01;9.4;;9.4;8.9;;;;;;
67700;SPS30;55380;54.156;18.708;2023-02-28T10:34:00;8.3;;8.3;7.8;;;;;;
67700;SPS30;55380;54.156;18.708;2023-02-28T10:36:00;7.8;;7.7;7.3;;;;;;
67700;SPS30;55380;54.156;18.708;2023-02-28T10:38:00;6.4;;6.4;6.0;;;;;;
67700;SPS30;55380;54.156;18.708;2023-02-28T10:40:00;6.2;;6.2;5.9;;;;;;
67700;SPS30;55380;54.156;18.708;2023-02-28T10:42:00;5.9;;5.9;5.5;;;;;;
67700;SPS30;55380;54.156;18.708;2023-02-28T10:46:02;7.0;;7.0;6.7;;;;;;
67700;SPS30;55380;54.156;18.708;2023-02-28T10:48:01;6.5;;6.5;6.1;;;;;;
67700;SPS30;55380;54.156;18.708;2023-02-28T10:50:00;6.9;;6.8;6.4;;;;;;
67700;SPS30;55380;54.156;18.708;2023-02-28T10:52:00;6.0;;6.0;5.7;;;;;;
67700;SPS30;55380;54.156;18.708;2023-02-28T10:54:00;5.8;;5.8;5.4;;;;;;
67700;SPS30;55380;54.156;18.708;2023-02-28T10:56:01;5.8;;5.8;5.5;;;;;;
67700;SPS30;55380;54.156;18.708;2023-02-28T10:58:00;6.1;;6.0;5.7;;;;;;
67700;SPS30;55380;54.156;18.708;2023-02-28T11:00:05;5.9;;5.9;5.5;;;;;;
67700;SPS30;55380;54.156;18.708;2023-02-28T11:02:00;5.6;;5.6;5.3;;;;;;
67700;SPS30;55380;54.156;18.708;2023-02-28T11:04:00;5.4;;5.4;5.1;;;;;;